Time;durP1;ratioP1;P1;durP2;ratioP2;P2;SDS_P1;SDS_P2;PMS_P1;PMS_P2;Temp;Humidity;BMP_temperature;BMP_pressure;BME280_temperature;BME280_humidity;BME280_pressure;Samples;Min_cycle;Max_cycle;Signal;HPM_P1;HPM_P2
2023/03/25 00:00:43;;;;;;;;;;;10.20;99.90;;;;;;5112834;28;19931;-64
2023/03/25 00:03:09;;;;;;;;;;;10.20;99.90;;;;;;5112902;28;19934;-64
2023/03/25 00:05:38;;;;;;;;;;;10.20;99.90;;;;;;5112389;28;19927;-64
2023/03/25 00:08:03;;;;;;;;;;;10.20;99.90;;;;;;5093845;28;19923;-63
2023/03/25 00:10:30;;;;;;;;;;;10.20;99.90;;;;;;5111974;28;19930;-64
2023/03/25 00:12:57;;;;;;;;;;;10.10;99.90;;;;;;5112679;28;19979;-64
2023/03/25 00:15:22;;;;;;;;;;;10.10;99.90;;;;;;5111987;28;19939;-64
2023/03/25 00:17:48;;;;;;;;;;;10.10;99.90;;;;;;5094311;28;19927;-65
2023/03/25 00:20:13;;;;;;;;;;;10.10;99.90;;;;;;5112371;28;20010;-64
2023/03/25 00:22:41;;;;;;;;;;;10.10;99.90;;;;;;5111787;28;20011;-64
2023/03/25 00:25:08;;;;;;;;;;;10.10;99.90;;;;;;5098323;28;19923;-64
2023/03/25 00:27:34;;;;;;;;;;;10.10;99.90;;;;;;5116035;28;19931;-64
2023/03/25 00:29:59;;;;;;;;;;;10.10;99.90;;;;;;5116671;28;20285;-64
2023/03/25 00:32:28;;;;;;;;;;;10.10;99.90;;;;;;5098173;28;19934;-64
2023/03/25 00:34:54;;;;;;;;;;;10.10;99.90;;;;;;5115956;28;20381;-65
2023/03/25 00:37:20;;;;;;;;;;;10.10;99.90;;;;;;5098247;28;19924;-67
2023/03/25 00:39:46;;;;;;;;;;;10.00;99.90;;;;;;5098072;28;19934;-64
2023/03/25 00:42:14;;;;;;;;;;;10.00;99.90;;;;;;5116018;28;19923;-64
2023/03/25 00:44:40;;;;;;;;;;;10.00;99.90;;;;;;5097691;28;20516;-65
2023/03/25 00:47:06;;;;;;;;;;;10.00;99.90;;;;;;5097246;28;19923;-64
2023/03/25 00:49:31;;;;;;;;;;;9.90;99.90;;;;;;5115696;28;19924;-64
2023/03/25 00:51:57;;;;;;;;;;;9.90;99.90;;;;;;5116036;28;19924;-65
2023/03/25 00:54:23;;;;;;;;;;;9.90;99.90;;;;;;5097387;28;19934;-67
2023/03/25 00:56:49;;;;;;;;;;;9.90;99.90;;;;;;5116017;28;20391;-64
2023/03/25 00:59:15;;;;;;;;;;;9.90;99.90;;;;;;5115975;28;19935;-64
2023/03/25 01:01:42;;;;;;;;;;;9.80;99.90;;;;;;5115352;28;20445;-64
2023/03/25 01:04:15;;;;;;;;;;;9.80;99.90;;;;;;5097666;28;19936;-64
2023/03/25 01:06:42;;;;;;;;;;;9.80;99.90;;;;;;5115635;28;20150;-64
2023/03/25 01:09:09;;;;;;;;;;;9.80;99.90;;;;;;5115644;28;19924;-65
2023/03/25 01:11:37;;;;;;;;;;;9.80;99.90;;;;;;5115402;28;19928;-63
2023/03/25 01:14:04;;;;;;;;;;;9.80;99.90;;;;;;5097285;28;20006;-64
2023/03/25 01:16:30;;;;;;;;;;;9.70;99.90;;;;;;5115396;28;20258;-65
2023/03/25 01:18:56;;;;;;;;;;;9.70;99.90;;;;;;5115461;28;19931;-63
2023/03/25 01:21:21;;;;;;;;;;;9.70;99.90;;;;;;5115770;28;19930;-64
2023/03/25 01:23:47;;;;;;;;;;;9.70;99.90;;;;;;5097182;28;20017;-65
2023/03/25 01:26:13;;;;;;;;;;;9.60;99.90;;;;;;5115598;28;19924;-64
2023/03/25 01:28:39;;;;;;;;;;;9.50;99.90;;;;;;5114706;28;19931;-63
2023/03/25 01:31:06;;;;;;;;;;;9.50;99.90;;;;;;5096984;28;20437;-64
2023/03/25 01:33:31;;;;;;;;;;;9.50;99.90;;;;;;5114908;28;19966;-64
2023/03/25 01:35:57;;;;;;;;;;;9.50;99.90;;;;;;5096813;28;20016;-63
2023/03/25 01:38:23;;;;;;;;;;;9.50;99.90;;;;;;5096887;28;19923;-63
2023/03/25 01:40:50;;;;;;;;;;;9.50;99.90;;;;;;5114662;28;20329;-64
2023/03/25 01:43:17;;;;;;;;;;;9.50;99.90;;;;;;5096833;28;19927;-63
2023/03/25 01:45:44;;;;;;;;;;;9.50;99.90;;;;;;5096335;28;19924;-64
2023/03/25 01:48:14;;;;;;;;;;;9.40;99.90;;;;;;5096793;28;19973;-65
2023/03/25 01:50:41;;;;;;;;;;;9.40;99.90;;;;;;5114666;28;20349;-63
2023/03/25 01:53:07;;;;;;;;;;;9.40;99.90;;;;;;5114980;28;19931;-63
2023/03/25 01:55:34;;;;;;;;;;;9.40;99.90;;;;;;5114712;28;19923;-64
2023/03/25 01:58:01;;;;;;;;;;;9.30;99.90;;;;;;5115026;28;19970;-64
2023/03/25 02:00:26;;;;;;;;;;;9.30;99.90;;;;;;5114724;28;20352;-63
2023/03/25 02:02:57;;;;;;;;;;;9.30;99.90;;;;;;5114518;28;19920;-64
2023/03/25 02:05:34;;;;;;;;;;;9.30;99.90;;;;;;5114757;28;19923;-63
2023/03/25 02:08:02;;;;;;;;;;;9.20;99.90;;;;;;5096820;28;19924;-64
2023/03/25 02:10:28;;;;;;;;;;;9.20;99.90;;;;;;5114793;28;19930;-64
2023/03/25 02:12:53;;;;;;;;;;;9.20;99.90;;;;;;5114277;28;19998;-64
2023/03/25 02:15:19;;;;;;;;;;;9.20;99.90;;;;;;5114750;28;19923;-63
2023/03/25 02:18:03;;;;;;;;;;;9.10;99.90;;;;;;5114257;28;19951;-63
2023/03/25 02:20:29;;;;;;;;;;;9.10;99.90;;;;;;5114566;28;19986;-64
2023/03/25 02:22:58;;;;;;;;;;;9.10;99.90;;;;;;5095519;28;20106;-62
2023/03/25 02:25:34;;;;;;;;;;;9.10;99.90;;;;;;5114178;28;19924;-63
2023/03/25 02:28:02;;;;;;;;;;;9.10;99.90;;;;;;5113850;28;19924;-63
2023/03/25 02:30:35;;;;;;;;;;;9.10;99.90;;;;;;5114074;28;19928;-64
2023/03/25 02:33:13;;;;;;;;;;;9.20;99.90;;;;;;5096182;28;19924;-63
2023/03/25 02:35:57;;;;;;;;;;;9.10;99.90;;;;;;5113494;28;20009;-63
2023/03/25 02:38:25;;;;;;;;;;;9.10;99.90;;;;;;5113710;28;19924;-63
2023/03/25 02:40:54;;;;;;;;;;;9.20;99.90;;;;;;5095388;28;19923;-64
2023/03/25 02:43:23;;;;;;;;;;;9.20;99.90;;;;;;5113936;28;19982;-63
2023/03/25 02:45:51;;;;;;;;;;;9.20;99.90;;;;;;5112767;28;19923;-63
2023/03/25 02:48:26;;;;;;;;;;;9.20;99.90;;;;;;5114021;28;19936;-65
2023/03/25 02:50:56;;;;;;;;;;;9.20;99.90;;;;;;5113157;28;20377;-64
2023/03/25 02:53:28;;;;;;;;;;;9.20;99.90;;;;;;5094722;28;19924;-62
2023/03/25 02:55:56;;;;;;;;;;;9.20;99.90;;;;;;5113075;28;19926;-64
2023/03/25 02:58:23;;;;;;;;;;;9.20;99.90;;;;;;5113463;28;19931;-64
2023/03/25 03:00:49;;;;;;;;;;;9.20;99.90;;;;;;5113354;28;19924;-64
2023/03/25 03:03:14;;;;;;;;;;;9.20;99.90;;;;;;5113291;28;19924;-64
2023/03/25 03:05:43;;;;;;;;;;;9.20;99.90;;;;;;5113038;28;19984;-66
2023/03/25 03:08:27;;;;;;;;;;;9.20;99.90;;;;;;5095109;28;19924;-64
2023/03/25 03:11:05;;;;;;;;;;;9.20;99.90;;;;;;5113064;28;19927;-63
2023/03/25 03:13:40;;;;;;;;;;;9.20;99.90;;;;;;5113312;28;19989;-63
2023/03/25 03:16:05;;;;;;;;;;;9.20;99.90;;;;;;5112772;28;19935;-63
2023/03/25 03:18:50;;;;;;;;;;;9.20;99.90;;;;;;5094947;28;20373;-63
2023/03/25 03:21:22;;;;;;;;;;;9.20;99.90;;;;;;5113449;28;19927;-63
2023/03/25 03:24:01;;;;;;;;;;;9.20;99.90;;;;;;5094556;28;20303;-64
2023/03/25 03:26:42;;;;;;;;;;;9.20;99.90;;;;;;5113243;28;19931;-64
2023/03/25 03:29:11;;;;;;;;;;;9.20;99.90;;;;;;5112541;28;19924;-65
2023/03/25 03:31:42;;;;;;;;;;;9.20;99.90;;;;;;5095136;28;19931;-64
2023/03/25 03:34:13;;;;;;;;;;;9.30;99.90;;;;;;5112274;28;20365;-64
2023/03/25 03:36:44;;;;;;;;;;;9.30;99.90;;;;;;5112756;28;19931;-65
2023/03/25 03:39:22;;;;;;;;;;;9.30;99.90;;;;;;5112792;28;20010;-64
2023/03/25 03:41:51;;;;;;;;;;;9.30;99.90;;;;;;5094018;28;19924;-65
2023/03/25 03:44:19;;;;;;;;;;;9.30;99.90;;;;;;5112571;28;19924;-64
2023/03/25 03:46:57;;;;;;;;;;;9.30;99.90;;;;;;5094508;28;19923;-64
2023/03/25 03:49:28;;;;;;;;;;;9.30;99.90;;;;;;5111907;28;19943;-64
2023/03/25 03:52:07;;;;;;;;;;;9.30;99.90;;;;;;5112644;28;19924;-63
2023/03/25 03:54:56;;;;;;;;;;;9.30;99.90;;;;;;5112454;28;19965;-64
2023/03/25 03:57:25;;;;;;;;;;;9.30;99.90;;;;;;5098782;28;19924;-64
2023/03/25 04:00:14;;;;;;;;;;;9.30;99.90;;;;;;5094147;28;19923;-64
2023/03/25 04:02:41;;;;;;;;;;;9.30;99.90;;;;;;5081057;28;19923;-64
2023/03/25 04:05:10;;;;;;;;;;;9.30;99.90;;;;;;5094279;28;20284;-63
2023/03/25 04:07:57;;;;;;;;;;;9.30;99.90;;;;;;5112666;28;19927;-63
2023/03/25 04:10:38;;;;;;;;;;;9.20;99.90;;;;;;5094572;28;19924;-64
2023/03/25 04:13:05;;;;;;;;;;;9.20;99.90;;;;;;5077578;28;20373;-65
2023/03/25 04:15:31;;;;;;;;;;;9.20;99.90;;;;;;5094801;28;19988;-63
2023/03/25 04:17:56;;;;;;;;;;;9.20;99.90;;;;;;5094213;28;19924;-63
2023/03/25 04:20:23;;;;;;;;;;;9.10;99.90;;;;;;5112554;28;19924;-64
2023/03/25 04:22:50;;;;;;;;;;;9.10;99.90;;;;;;5094687;28;19924;-64
2023/03/25 04:25:16;;;;;;;;;;;9.10;99.90;;;;;;5112172;28;19924;-64
2023/03/25 04:27:47;;;;;;;;;;;9.10;99.90;;;;;;5112013;28;19924;-64
2023/03/25 04:30:13;;;;;;;;;;;9.10;99.90;;;;;;5094179;28;20246;-63
2023/03/25 04:32:39;;;;;;;;;;;9.10;99.90;;;;;;5077543;28;20295;-63
2023/03/25 04:35:05;;;;;;;;;;;9.10;99.90;;;;;;5093612;28;19934;-63
2023/03/25 04:37:32;;;;;;;;;;;9.10;99.90;;;;;;5093936;28;19924;-63
2023/03/25 04:39:58;;;;;;;;;;;9.10;99.90;;;;;;5093513;28;19971;-63
2023/03/25 04:42:31;;;;;;;;;;;9.10;99.90;;;;;;5111871;28;19931;-63
2023/03/25 04:45:00;;;;;;;;;;;9.10;99.90;;;;;;5112018;28;19977;-64
2023/03/25 04:47:26;;;;;;;;;;;9.10;99.90;;;;;;5111682;28;20335;-64
2023/03/25 04:49:51;;;;;;;;;;;9.10;99.90;;;;;;5112144;28;19977;-64
2023/03/25 04:52:17;;;;;;;;;;;9.10;99.90;;;;;;5093189;28;19928;-64
2023/03/25 04:54:46;;;;;;;;;;;9.10;99.90;;;;;;5111968;28;19923;-64
2023/03/25 04:57:11;;;;;;;;;;;9.10;99.90;;;;;;5093549;28;19976;-64
2023/03/25 04:59:37;;;;;;;;;;;9.10;99.90;;;;;;5093817;28;20338;-64
2023/03/25 05:02:04;;;;;;;;;;;9.10;99.90;;;;;;5093449;28;20368;-64
2023/03/25 05:04:30;;;;;;;;;;;9.10;99.90;;;;;;5111841;28;19928;-64
2023/03/25 05:06:56;;;;;;;;;;;9.10;99.90;;;;;;5093488;28;19924;-64
2023/03/25 05:09:21;;;;;;;;;;;9.10;99.90;;;;;;5093981;28;20033;-63
2023/03/25 05:11:48;;;;;;;;;;;9.10;99.90;;;;;;5097284;28;19924;-63
2023/03/25 05:14:15;;;;;;;;;;;9.10;99.90;;;;;;5115592;28;19931;-64
2023/03/25 05:16:41;;;;;;;;;;;9.10;99.90;;;;;;5097500;28;20374;-62
2023/03/25 05:19:07;;;;;;;;;;;9.10;99.90;;;;;;5115217;28;20293;-64
2023/03/25 05:21:35;;;;;;;;;;;9.10;99.90;;;;;;5115091;28;19930;-64
2023/03/25 05:24:01;;;;;;;;;;;9.10;99.90;;;;;;5096021;28;20041;-66
2023/03/25 05:26:33;;;;;;;;;;;9.10;99.90;;;;;;5113986;28;20400;-65
2023/03/25 05:29:05;;;;;;;;;;;9.10;99.90;;;;;;5114063;28;19977;-64
2023/03/25 05:31:31;;;;;;;;;;;9.10;99.90;;;;;;5096468;28;19924;-64
2023/03/25 05:33:56;;;;;;;;;;;9.10;99.90;;;;;;5095728;28;19974;-64
2023/03/25 05:36:25;;;;;;;;;;;9.10;99.90;;;;;;5096140;28;19984;-64
2023/03/25 05:38:54;;;;;;;;;;;9.10;99.90;;;;;;5095421;28;19924;-67
2023/03/25 05:41:21;;;;;;;;;;;9.10;99.90;;;;;;5114243;28;20280;-65
2023/03/25 05:43:49;;;;;;;;;;;9.10;99.90;;;;;;5115078;28;19923;-64
2023/03/25 05:46:18;;;;;;;;;;;9.10;99.90;;;;;;5114649;28;20034;-63
2023/03/25 05:48:43;;;;;;;;;;;9.10;99.90;;;;;;5096752;28;20027;-64
2023/03/25 05:51:12;;;;;;;;;;;9.10;99.90;;;;;;5095991;28;19979;-65
2023/03/25 05:53:38;;;;;;;;;;;9.10;99.90;;;;;;5115258;28;19979;-64
2023/03/25 05:56:04;;;;;;;;;;;9.10;99.90;;;;;;5096785;28;19984;-65
2023/03/25 05:58:31;;;;;;;;;;;9.10;99.90;;;;;;5114580;28;20446;-63
2023/03/25 06:00:58;;;;;;;;;;;9.10;99.90;;;;;;5096703;28;19923;-63
2023/03/25 06:03:24;;;;;;;;;;;9.10;99.90;;;;;;5096364;28;19931;-64
2023/03/25 06:05:51;;;;;;;;;;;9.10;99.90;;;;;;5096325;28;19945;-65
2023/03/25 06:08:18;;;;;;;;;;;9.10;99.90;;;;;;5096202;28;19923;-64
2023/03/25 06:10:44;;;;;;;;;;;9.10;99.90;;;;;;5114448;28;19923;-64
2023/03/25 06:13:10;;;;;;;;;;;9.10;99.90;;;;;;5114280;28;19924;-65
2023/03/25 06:15:39;;;;;;;;;;;9.10;99.90;;;;;;5114878;28;19947;-64
2023/03/25 06:18:05;;;;;;;;;;;9.10;99.90;;;;;;5114676;28;19924;-63
2023/03/25 06:20:30;;;;;;;;;;;9.10;99.90;;;;;;5095310;28;19977;-64
2023/03/25 06:22:56;;;;;;;;;;;9.10;99.90;;;;;;5114038;28;19924;-63
2023/03/25 06:25:22;;;;;;;;;;;9.10;99.90;;;;;;5114031;28;19946;-64
2023/03/25 06:27:49;;;;;;;;;;;9.20;99.90;;;;;;5114325;28;19927;-64
2023/03/25 06:30:16;;;;;;;;;;;9.20;99.90;;;;;;5113791;28;19930;-65
2023/03/25 06:32:42;;;;;;;;;;;9.20;99.90;;;;;;5114321;28;19931;-64
2023/03/25 06:35:08;;;;;;;;;;;9.20;99.90;;;;;;5113944;28;19932;-64
2023/03/25 06:37:34;;;;;;;;;;;9.20;99.90;;;;;;5113689;28;19989;-63
2023/03/25 06:40:00;;;;;;;;;;;9.10;99.90;;;;;;5114103;28;19924;-65
2023/03/25 06:42:26;;;;;;;;;;;9.10;99.90;;;;;;5113600;28;19931;-64
2023/03/25 06:44:51;;;;;;;;;;;9.00;99.90;;;;;;5113921;28;19930;-65
2023/03/25 06:47:17;;;;;;;;;;;8.90;99.90;;;;;;5095182;28;19972;-65
2023/03/25 06:49:43;;;;;;;;;;;8.80;99.90;;;;;;5096029;28;19969;-65
2023/03/25 06:52:08;;;;;;;;;;;8.80;99.90;;;;;;5095076;28;20289;-64
2023/03/25 06:54:34;;;;;;;;;;;8.70;99.90;;;;;;5113465;28;19985;-65
2023/03/25 06:56:59;;;;;;;;;;;8.70;99.90;;;;;;5096076;28;19967;-63
2023/03/25 06:59:25;;;;;;;;;;;8.70;99.90;;;;;;5095271;28;19927;-67
2023/03/25 07:01:51;;;;;;;;;;;8.70;99.90;;;;;;5095425;28;19924;-63
2023/03/25 07:04:16;;;;;;;;;;;8.80;99.90;;;;;;5095453;28;19924;-65
2023/03/25 07:06:42;;;;;;;;;;;8.80;99.90;;;;;;5095174;28;19924;-64
2023/03/25 07:09:07;;;;;;;;;;;8.90;99.90;;;;;;5113339;28;19924;-64
2023/03/25 07:11:33;;;;;;;;;;;8.90;99.90;;;;;;5113227;28;19928;-64
2023/03/25 07:13:59;;;;;;;;;;;9.00;99.90;;;;;;5113306;28;19924;-63
2023/03/25 07:16:25;;;;;;;;;;;9.00;99.90;;;;;;5113041;28;19969;-63
2023/03/25 07:18:50;;;;;;;;;;;9.10;99.90;;;;;;5113305;28;19930;-63
2023/03/25 07:21:17;;;;;;;;;;;9.10;99.90;;;;;;5095357;28;19988;-66
2023/03/25 07:23:42;;;;;;;;;;;9.20;99.90;;;;;;5113155;28;20022;-65
2023/03/25 07:26:08;;;;;;;;;;;9.30;99.90;;;;;;5094911;28;20019;-64
2023/03/25 07:28:34;;;;;;;;;;;9.30;99.90;;;;;;5112478;28;19976;-65
2023/03/25 07:30:59;;;;;;;;;;;9.20;99.90;;;;;;5113346;28;19923;-65
2023/03/25 07:33:25;;;;;;;;;;;9.10;99.90;;;;;;5094596;28;19927;-63
2023/03/25 07:35:50;;;;;;;;;;;9.00;99.90;;;;;;5094939;28;19932;-64
2023/03/25 07:38:16;;;;;;;;;;;8.90;99.90;;;;;;5095273;28;19931;-65
2023/03/25 07:40:42;;;;;;;;;;;8.90;99.90;;;;;;5112435;28;19984;-64
2023/03/25 07:43:07;;;;;;;;;;;8.90;99.90;;;;;;5113172;28;19923;-64
2023/03/25 07:45:33;;;;;;;;;;;8.80;99.90;;;;;;5094695;28;19988;-64
2023/03/25 07:48:02;;;;;;;;;;;8.80;99.90;;;;;;5112835;28;19931;-64
2023/03/25 07:50:28;;;;;;;;;;;8.80;99.90;;;;;;5112480;28;19924;-64
2023/03/25 07:52:54;;;;;;;;;;;8.80;99.90;;;;;;5094853;28;19924;-64
2023/03/25 07:55:19;;;;;;;;;;;8.80;99.90;;;;;;5112573;28;19974;-64
2023/03/25 07:57:45;;;;;;;;;;;8.80;99.90;;;;;;5094104;28;20335;-64
2023/03/25 08:00:11;;;;;;;;;;;8.80;99.90;;;;;;5112704;28;19931;-64
2023/03/25 08:02:38;;;;;;;;;;;8.70;99.90;;;;;;5112462;28;20015;-64
2023/03/25 08:05:04;;;;;;;;;;;8.80;99.90;;;;;;5094544;28;19923;-63
2023/03/25 08:07:30;;;;;;;;;;;8.70;99.90;;;;;;5093618;28;19993;-64
2023/03/25 08:09:56;;;;;;;;;;;8.90;99.90;;;;;;5112772;28;19938;-64
2023/03/25 08:12:22;;;;;;;;;;;9.00;99.90;;;;;;5094847;28;19924;-64
2023/03/25 08:14:47;;;;;;;;;;;9.00;99.90;;;;;;5112313;28;19927;-64
2023/03/25 08:17:13;;;;;;;;;;;9.00;99.90;;;;;;5094601;28;19931;-63
2023/03/25 08:19:38;;;;;;;;;;;9.00;99.90;;;;;;5077495;28;19978;-64
2023/03/25 08:22:04;;;;;;;;;;;9.00;99.90;;;;;;5112593;28;20384;-63
2023/03/25 08:24:31;;;;;;;;;;;9.00;99.90;;;;;;5111885;28;20296;-64
2023/03/25 08:26:59;;;;;;;;;;;9.00;99.90;;;;;;5112636;28;19923;-63
2023/03/25 08:29:26;;;;;;;;;;;9.00;99.90;;;;;;5094118;28;20006;-63
2023/03/25 08:31:51;;;;;;;;;;;9.00;99.90;;;;;;5112459;28;19928;-63
2023/03/25 08:34:18;;;;;;;;;;;9.00;99.90;;;;;;5112612;28;19924;-64
2023/03/25 08:36:44;;;;;;;;;;;9.10;99.90;;;;;;5112075;28;19924;-64
2023/03/25 08:39:11;;;;;;;;;;;9.10;99.90;;;;;;5112154;28;19924;-66
2023/03/25 08:41:37;;;;;;;;;;;9.10;99.90;;;;;;5111703;28;20304;-64
2023/03/25 08:44:03;;;;;;;;;;;9.10;99.90;;;;;;5112642;28;19923;-66
2023/03/25 08:46:29;;;;;;;;;;;9.10;99.90;;;;;;5081335;28;19928;-67
2023/03/25 08:48:55;;;;;;;;;;;9.10;99.90;;;;;;5098175;28;19935;-65
2023/03/25 08:51:20;;;;;;;;;;;9.10;99.90;;;;;;5098474;28;20001;-65
2023/03/25 08:53:46;;;;;;;;;;;9.10;99.90;;;;;;5097428;28;20368;-65
2023/03/25 08:56:12;;;;;;;;;;;9.10;99.90;;;;;;5098112;28;19924;-64
2023/03/25 08:58:38;;;;;;;;;;;9.10;99.90;;;;;;5115997;28;20392;-65
2023/03/25 09:01:04;;;;;;;;;;;9.10;99.90;;;;;;5080925;28;20361;-65
2023/03/25 09:03:29;;;;;;;;;;;9.30;99.90;;;;;;5097744;28;20010;-66
2023/03/25 09:05:55;;;;;;;;;;;9.60;99.90;;;;;;5097584;28;19927;-64
2023/03/25 09:08:21;;;;;;;;;;;10.00;99.90;;;;;;5115932;28;20307;-65
2023/03/25 09:10:47;;;;;;;;;;;10.50;99.90;;;;;;5097425;28;20114;-65
2023/03/25 09:13:13;;;;;;;;;;;10.70;99.90;;;;;;5097723;28;20373;-63
2023/03/25 09:15:38;;;;;;;;;;;10.70;99.90;;;;;;5115519;28;19976;-65
2023/03/25 09:18:04;;;;;;;;;;;10.80;99.90;;;;;;5115891;28;20315;-64
2023/03/25 09:20:30;;;;;;;;;;;11.40;99.90;;;;;;5115548;28;19923;-64
2023/03/25 09:22:56;;;;;;;;;;;12.00;99.90;;;;;;5115383;28;19931;-64
2023/03/25 09:25:22;;;;;;;;;;;12.20;99.90;;;;;;5097788;28;20248;-66
2023/03/25 09:27:47;;;;;;;;;;;12.10;99.90;;;;;;5115176;28;19970;-65
2023/03/25 09:30:14;;;;;;;;;;;11.90;99.90;;;;;;5097358;28;19924;-64
2023/03/25 09:32:40;;;;;;;;;;;11.70;99.90;;;;;;5115124;28;19923;-63
2023/03/25 09:35:06;;;;;;;;;;;11.70;99.90;;;;;;5097286;28;19924;-66
2023/03/25 09:37:32;;;;;;;;;;;11.60;99.90;;;;;;5115473;28;19930;-66
2023/03/25 09:39:57;;;;;;;;;;;11.50;99.90;;;;;;5097154;28;19923;-65
2023/03/25 09:42:29;;;;;;;;;;;11.20;99.90;;;;;;5115196;28;19924;-64
2023/03/25 09:45:10;;;;;;;;;;;11.10;99.90;;;;;;5114767;28;19930;-65
2023/03/25 09:47:35;;;;;;;;;;;11.00;99.90;;;;;;5115467;28;19972;-65
2023/03/25 09:50:08;;;;;;;;;;;10.90;99.90;;;;;;5115065;28;20339;-66
2023/03/25 09:52:48;;;;;;;;;;;10.80;99.90;;;;;;5115072;28;19986;-66
2023/03/25 09:55:19;;;;;;;;;;;10.70;99.90;;;;;;5114842;28;19951;-65
2023/03/25 09:57:48;;;;;;;;;;;10.80;99.90;;;;;;5114641;28;19989;-65
2023/03/25 10:00:18;;;;;;;;;;;10.80;99.90;;;;;;5114808;28;20068;-65
2023/03/25 10:02:43;;;;;;;;;;;10.80;99.90;;;;;;5096600;28;19968;-64
2023/03/25 10:05:27;;;;;;;;;;;10.90;99.90;;;;;;5114703;28;19928;-65
2023/03/25 10:07:56;;;;;;;;;;;11.00;99.90;;;;;;5114579;28;19976;-66
2023/03/25 10:10:27;;;;;;;;;;;10.90;99.90;;;;;;5114756;28;19924;-66
2023/03/25 10:13:08;;;;;;;;;;;10.80;99.90;;;;;;5114311;28;19930;-65
2023/03/25 10:15:34;;;;;;;;;;;10.80;99.90;;;;;;5114650;28;20006;-65
2023/03/25 10:18:09;;;;;;;;;;;10.70;99.90;;;;;;5114349;28;19924;-65
2023/03/25 10:20:42;;;;;;;;;;;10.70;99.90;;;;;;5114534;28;19947;-65
2023/03/25 10:23:28;;;;;;;;;;;10.70;99.90;;;;;;5096205;28;19978;-66
2023/03/25 10:26:12;;;;;;;;;;;10.80;99.90;;;;;;5113110;28;19924;-66
2023/03/25 10:28:42;;;;;;;;;;;10.80;99.90;;;;;;5114027;28;20360;-66
2023/03/25 10:31:12;;;;;;;;;;;10.70;99.90;;;;;;5096291;28;19924;-65
2023/03/25 10:33:40;;;;;;;;;;;10.70;99.90;;;;;;5114335;28;19930;-66
2023/03/25 10:36:09;;;;;;;;;;;10.60;99.90;;;;;;5113827;28;19927;-65
2023/03/25 10:38:36;;;;;;;;;;;10.70;99.90;;;;;;5096302;28;19985;-65
2023/03/25 10:41:20;;;;;;;;;;;10.80;99.90;;;;;;5095887;28;19979;-65
2023/03/25 10:43:46;;;;;;;;;;;10.80;99.90;;;;;;5078986;28;20349;-66
2023/03/25 10:46:15;;;;;;;;;;;10.90;99.90;;;;;;5096249;28;20019;-63
2023/03/25 10:48:40;;;;;;;;;;;10.90;99.90;;;;;;5095919;28;19931;-65
2023/03/25 10:51:10;;;;;;;;;;;10.90;99.90;;;;;;5078843;28;19920;-65
2023/03/25 10:53:36;;;;;;;;;;;10.90;99.90;;;;;;5113920;28;19928;-66
2023/03/25 10:56:04;;;;;;;;;;;11.00;99.90;;;;;;5095339;28;19999;-66
2023/03/25 10:58:30;;;;;;;;;;;10.90;99.90;;;;;;5113165;28;19923;-65
2023/03/25 11:00:56;;;;;;;;;;;10.80;99.90;;;;;;5095257;28;19980;-66
2023/03/25 11:03:25;;;;;;;;;;;10.80;99.90;;;;;;5113978;28;19930;-66
2023/03/25 11:05:52;;;;;;;;;;;10.70;99.90;;;;;;5113415;28;19931;-65
2023/03/25 11:08:20;;;;;;;;;;;10.80;99.90;;;;;;5113210;28;19923;-66
2023/03/25 11:10:47;;;;;;;;;;;10.90;99.90;;;;;;5095500;28;20327;-66
2023/03/25 11:13:15;;;;;;;;;;;11.00;99.90;;;;;;5113061;28;19984;-65
2023/03/25 11:15:41;;;;;;;;;;;11.10;99.90;;;;;;5095650;28;20285;-65
2023/03/25 11:18:27;;;;;;;;;;;11.10;99.90;;;;;;5113059;28;19924;-64
2023/03/25 11:20:59;;;;;;;;;;;11.10;99.90;;;;;;5113125;28;19930;-65
2023/03/25 11:23:26;;;;;;;;;;;11.20;99.90;;;;;;5095223;28;19928;-63
2023/03/25 11:25:53;;;;;;;;;;;11.20;99.90;;;;;;5113000;28;19931;-65
2023/03/25 11:28:26;;;;;;;;;;;11.20;99.90;;;;;;5113254;28;19924;-65
2023/03/25 11:31:08;;;;;;;;;;;11.30;99.90;;;;;;5095059;28;19924;-66
2023/03/25 11:33:38;;;;;;;;;;;11.20;99.90;;;;;;5113286;28;19931;-64
2023/03/25 11:36:20;;;;;;;;;;;11.30;99.90;;;;;;5112913;28;19924;-65
2023/03/25 11:38:49;;;;;;;;;;;11.40;99.90;;;;;;5094797;28;20349;-66
2023/03/25 11:41:15;;;;;;;;;;;11.50;99.90;;;;;;5111395;28;19936;-65
2023/03/25 11:43:46;;;;;;;;;;;11.40;99.90;;;;;;5094913;28;20433;-66
2023/03/25 11:46:13;;;;;;;;;;;11.40;99.90;;;;;;5094857;28;19934;-64
2023/03/25 11:48:40;;;;;;;;;;;11.40;99.90;;;;;;5112580;28;19924;-65
2023/03/25 11:51:18;;;;;;;;;;;11.40;99.90;;;;;;5112567;28;20351;-65
2023/03/25 11:54:04;;;;;;;;;;;11.40;99.90;;;;;;5113104;28;19969;-64
2023/03/25 11:56:34;;;;;;;;;;;11.50;99.90;;;;;;5111622;28;19931;-64
2023/03/25 11:59:00;;;;;;;;;;;11.60;99.90;;;;;;5112565;28;20369;-66
2023/03/25 12:01:26;;;;;;;;;;;11.60;99.90;;;;;;5112695;28;20415;-65
2023/03/25 12:04:04;;;;;;;;;;;11.70;99.90;;;;;;5112607;28;19924;-65
2023/03/25 12:06:30;;;;;;;;;;;11.80;99.90;;;;;;5112874;28;20023;-66
2023/03/25 12:08:57;;;;;;;;;;;11.90;99.90;;;;;;5112766;28;20014;-67
2023/03/25 12:11:27;;;;;;;;;;;11.90;99.90;;;;;;5112878;28;19924;-65
2023/03/25 12:14:07;;;;;;;;;;;11.90;99.90;;;;;;5112527;28;19930;-66
2023/03/25 12:16:36;;;;;;;;;;;11.90;99.90;;;;;;5094886;28;20364;-65
2023/03/25 12:19:01;;;;;;;;;;;12.00;99.90;;;;;;5094993;28;20377;-66
2023/03/25 12:21:27;;;;;;;;;;;12.00;99.90;;;;;;5116992;28;19930;-65
2023/03/25 12:24:18;;;;;;;;;;;11.90;99.90;;;;;;5117206;28;19959;-66
2023/03/25 12:26:44;;;;;;;;;;;12.00;99.90;;;;;;5116161;28;20411;-64
2023/03/25 12:29:21;;;;;;;;;;;11.90;99.90;;;;;;5115843;28;19924;-66
2023/03/25 12:32:10;;;;;;;;;;;11.90;99.90;;;;;;5098798;28;19923;-65
2023/03/25 12:34:54;;;;;;;;;;;11.90;99.90;;;;;;5116563;28;19928;-66
2023/03/25 12:37:25;;;;;;;;;;;11.80;99.90;;;;;;5097870;28;19920;-65
2023/03/25 12:40:16;;;;;;;;;;;11.80;99.90;;;;;;5116315;28;19930;-65
2023/03/25 12:42:51;;;;;;;;;;;11.80;99.90;;;;;;5098421;28;19930;-66
2023/03/25 12:45:23;;;;;;;;;;;11.80;99.90;;;;;;5081255;28;20033;-65
2023/03/25 12:47:48;;;;;;;;;;;11.80;99.90;;;;;;5116269;28;20363;-66
2023/03/25 12:50:30;;;;;;;;;;;11.90;99.90;;;;;;5097788;28;19975;-67
2023/03/25 12:53:15;;;;;;;;;;;11.80;99.90;;;;;;5116241;28;19930;-66
2023/03/25 12:55:51;;;;;;;;;;;11.80;99.90;;;;;;5116061;28;20253;-65
2023/03/25 12:58:31;;;;;;;;;;;11.80;99.90;;;;;;5115707;28;19978;-66
2023/03/25 13:01:03;;;;;;;;;;;11.70;99.90;;;;;;5116111;28;20023;-65
2023/03/25 13:03:36;;;;;;;;;;;11.70;99.90;;;;;;5115673;28;19973;-66
2023/03/25 13:06:16;;;;;;;;;;;11.60;99.90;;;;;;5080814;28;19924;-66
2023/03/25 13:08:46;;;;;;;;;;;11.50;99.90;;;;;;5115730;28;19938;-67
2023/03/25 13:11:15;;;;;;;;;;;11.20;99.90;;;;;;5097712;28;19927;-66
2023/03/25 13:13:42;;;;;;;;;;;10.90;99.90;;;;;;5097732;28;19930;-65
2023/03/25 13:16:15;;;;;;;;;;;10.70;99.90;;;;;;5097254;28;19928;-66
2023/03/25 13:18:40;;;;;;;;;;;10.60;99.90;;;;;;5097979;28;20002;-66
2023/03/25 13:21:10;;;;;;;;;;;10.50;99.90;;;;;;5115679;28;19928;-66
2023/03/25 13:23:37;;;;;;;;;;;10.50;99.90;;;;;;5115823;28;19924;-64
2023/03/25 13:26:08;;;;;;;;;;;10.40;99.90;;;;;;5097776;28;19923;-65
2023/03/25 13:28:45;;;;;;;;;;;10.40;99.90;;;;;;5115561;28;19924;-65
2023/03/25 13:31:17;;;;;;;;;;;10.30;99.90;;;;;;5097023;28;19977;-66
2023/03/25 13:33:54;;;;;;;;;;;10.30;99.90;;;;;;5097545;28;20013;-65
2023/03/25 13:36:28;;;;;;;;;;;10.30;99.90;;;;;;5115348;28;19982;-65
2023/03/25 13:39:00;;;;;;;;;;;10.40;99.90;;;;;;5097615;28;19924;-65
2023/03/25 13:41:33;;;;;;;;;;;10.50;99.90;;;;;;5096661;28;20527;-66
2023/03/25 13:44:10;;;;;;;;;;;10.50;99.90;;;;;;5115391;28;20004;-65
2023/03/25 13:46:41;;;;;;;;;;;10.50;99.90;;;;;;5115512;28;19937;-66
2023/03/25 13:49:16;;;;;;;;;;;10.50;99.90;;;;;;5115188;28;19924;-65
2023/03/25 13:51:42;;;;;;;;;;;10.50;99.90;;;;;;5097281;28;19923;-66
2023/03/25 13:54:46;;;;;;;;;;;10.50;99.90;;;;;;5114923;28;19980;-66
2023/03/25 13:57:11;;;;;;;;;;;10.50;99.90;;;;;;5011685;28;19953;-67
2023/03/25 13:59:40;;;;;;;;;;;10.40;99.90;;;;;;5012086;28;19982;-66
2023/03/25 14:02:21;;;;;;;;;;;10.30;99.90;;;;;;5043989;28;19997;-66
2023/03/25 14:04:56;;;;;;;;;;;10.10;99.90;;;;;;5115187;28;19924;-65
2023/03/25 14:07:35;;;;;;;;;;;9.90;99.90;;;;;;5096418;28;20331;-66
2023/03/25 14:10:16;;;;;;;;;;;9.70;99.90;;;;;;5115018;28;20262;-66
2023/03/25 14:12:45;;;;;;;;;;;9.40;99.90;;;;;;5080237;28;19930;-66
2023/03/25 14:15:14;;;;;;;;;;;9.20;99.90;;;;;;5114948;28;19923;-65
2023/03/25 14:17:39;;;;;;;;;;;9.10;99.90;;;;;;5114655;28;19971;-65
2023/03/25 14:20:09;;;;;;;;;;;9.00;99.90;;;;;;5096804;28;19974;-65
2023/03/25 14:22:38;;;;;;;;;;;9.00;99.90;;;;;;5114374;28;20166;-65
2023/03/25 14:25:05;;;;;;;;;;;9.10;99.90;;;;;;5114646;28;19975;-66
2023/03/25 14:27:31;;;;;;;;;;;9.20;99.90;;;;;;5114268;28;19923;-65
2023/03/25 14:30:13;;;;;;;;;;;9.40;99.90;;;;;;5114668;28;20262;-65
2023/03/25 14:32:40;;;;;;;;;;;9.50;99.90;;;;;;5096203;28;19924;-65
2023/03/25 14:35:25;;;;;;;;;;;9.70;99.90;;;;;;5096463;28;19928;-65
2023/03/25 14:37:50;;;;;;;;;;;9.80;99.90;;;;;;5096164;28;20380;-65